createdAt,value
2022-09-18T00:00:35.044Z,4.90
2022-09-18T00:03:25.395Z,4.70
2022-09-18T00:05:56.411Z,4.40
2022-09-18T00:08:26.833Z,4.30
2022-09-18T00:10:58.252Z,5.20
2022-09-18T00:13:30.729Z,4.10
2022-09-18T00:16:01.215Z,4.30
2022-09-18T00:18:31.675Z,4.30
2022-09-18T00:21:05.386Z,3.80
2022-09-18T00:23:36.604Z,3.90
2022-09-18T00:26:07.376Z,4.00
2022-09-18T00:28:38.316Z,3.70
2022-09-18T00:31:09.721Z,3.40
2022-09-18T00:33:40.618Z,3.30
2022-09-18T00:36:12.447Z,3.60
2022-09-18T00:38:43.885Z,3.80
2022-09-18T00:41:15.217Z,3.60
2022-09-18T00:43:46.209Z,3.10
2022-09-18T00:46:22.180Z,4.50
2022-09-18T00:48:58.529Z,4.80
2022-09-18T00:51:29.493Z,4.30
2022-09-18T00:54:04.956Z,4.50
2022-09-18T00:56:35.612Z,3.30
2022-09-18T00:59:06.760Z,3.60
2022-09-18T01:01:36.929Z,3.20
2022-09-18T01:04:11.556Z,3.40
2022-09-18T01:06:47.104Z,4.90
2022-09-18T01:09:28.359Z,3.70
2022-09-18T01:12:03.232Z,3.80
2022-09-18T01:14:38.730Z,3.40
2022-09-18T01:17:15.657Z,3.50
2022-09-18T01:19:54.710Z,4.40
2022-09-18T01:22:29.107Z,4.30
2022-09-18T01:25:09.177Z,4.40
2022-09-18T01:27:40.232Z,4.70
2022-09-18T01:30:13.278Z,4.50
2022-09-18T01:32:47.008Z,4.00
2022-09-18T01:35:40.114Z,4.20
2022-09-18T01:38:12.664Z,4.60
2022-09-18T01:40:45.882Z,4.00
2022-09-18T01:43:18.113Z,4.20
2022-09-18T01:45:51.085Z,4.30
2022-09-18T01:48:28.683Z,4.20
2022-09-18T01:51:05.205Z,4.30
2022-09-18T02:02:37.752Z,4.40
2022-09-18T02:05:09.780Z,4.50
2022-09-18T02:07:43.590Z,4.50
2022-09-18T02:10:14.387Z,5.20
2022-09-18T02:12:46.037Z,4.30
2022-09-18T02:15:17.843Z,3.70
2022-09-18T02:17:58.371Z,4.10
2022-09-18T02:20:39.333Z,4.70
2022-09-18T02:23:10.366Z,4.90
2022-09-18T02:25:43.767Z,5.00
2022-09-18T02:30:44.107Z,5.10
2022-09-18T02:33:28.467Z,4.20
2022-09-18T02:36:16.454Z,5.40
2022-09-18T02:38:50.569Z,4.30
2022-09-18T02:41:26.163Z,6.20
2022-09-18T02:44:00.472Z,4.00
2022-09-18T02:46:40.056Z,5.00
2022-09-18T02:49:13.409Z,4.20
2022-09-18T02:51:52.456Z,4.00
2022-09-18T02:54:27.166Z,4.70
2022-09-18T02:57:04.042Z,5.00
2022-09-18T02:59:36.621Z,4.50
2022-09-18T03:02:08.270Z,4.80
2022-09-18T03:04:41.683Z,4.40
2022-09-18T03:07:16.564Z,4.60
2022-09-18T03:09:49.271Z,4.10
2022-09-18T03:12:20.935Z,5.40
2022-09-18T03:14:52.692Z,4.50
2022-09-18T03:17:23.726Z,4.60
2022-09-18T03:19:55.082Z,4.70
2022-09-18T03:22:26.222Z,4.50
2022-09-18T03:24:58.021Z,4.70
2022-09-18T03:27:29.020Z,4.40
2022-09-18T03:29:59.540Z,4.70
2022-09-18T03:32:30.068Z,4.80
2022-09-18T03:35:01.221Z,4.40
2022-09-18T03:37:32.408Z,4.30
2022-09-18T03:40:04.267Z,4.10
2022-09-18T03:42:37.764Z,5.00
2022-09-18T03:45:09.937Z,4.60
2022-09-18T03:47:41.078Z,5.30
2022-09-18T03:50:12.817Z,4.50
2022-09-18T03:52:45.676Z,4.80
2022-09-18T03:55:47.216Z,5.00
2022-09-18T03:58:36.539Z,4.80
2022-09-18T04:01:37.539Z,4.70
2022-09-18T04:04:27.325Z,5.10
2022-09-18T04:07:16.370Z,4.80
2022-09-18T04:10:01.623Z,5.20
2022-09-18T04:12:32.077Z,4.40
2022-09-18T04:15:19.500Z,5.00
2022-09-18T04:17:51.507Z,5.70
2022-09-18T04:20:23.937Z,4.60
2022-09-18T04:22:54.669Z,4.80
2022-09-18T04:25:27.658Z,4.20
2022-09-18T04:28:01.051Z,4.70
2022-09-18T04:30:32.104Z,3.90
2022-09-18T04:33:02.821Z,3.70
2022-09-18T04:35:33.768Z,4.20
2022-09-18T04:38:04.282Z,3.90
2022-09-18T04:40:35.060Z,4.40
2022-09-18T04:43:05.961Z,4.30
2022-09-18T04:45:36.490Z,3.90
2022-09-18T04:48:07.113Z,4.40
2022-09-18T04:50:38.396Z,5.60
2022-09-18T04:53:20.664Z,4.00
2022-09-18T04:55:52.145Z,4.20
2022-09-18T04:58:24.282Z,4.70
2022-09-18T05:00:59.833Z,4.70
2022-09-18T05:03:32.204Z,3.80
2022-09-18T05:06:02.812Z,5.20
2022-09-18T05:08:35.148Z,5.30
2022-09-18T05:11:05.934Z,5.70
2022-09-18T05:13:39.946Z,5.60
2022-09-18T05:16:15.529Z,5.20
2022-09-18T05:18:46.430Z,5.00
2022-09-18T05:21:17.881Z,5.70
2022-09-18T05:23:48.616Z,4.30
2022-09-18T05:26:20.896Z,5.20
2022-09-18T05:28:51.724Z,4.60
2022-09-18T05:31:24.271Z,5.00
2022-09-18T05:33:54.922Z,5.40
2022-09-18T05:36:27.188Z,5.60
2022-09-18T05:38:58.536Z,5.50
2022-09-18T05:41:29.239Z,6.70
2022-09-18T05:43:59.804Z,5.90
2022-09-18T05:46:30.986Z,5.30
2022-09-18T05:49:06.591Z,5.50
2022-09-18T05:51:37.103Z,5.70
2022-09-18T05:54:07.721Z,4.50
2022-09-18T05:56:47.420Z,4.70
2022-09-18T05:59:17.921Z,6.00
2022-09-18T06:01:51.077Z,4.70
2022-09-18T06:04:25.245Z,5.00
2022-09-18T06:07:00.909Z,4.80
2022-09-18T06:09:31.924Z,4.60
2022-09-18T06:12:03.568Z,4.30
2022-09-18T06:14:37.576Z,4.40
2022-09-18T06:17:08.053Z,4.20
2022-09-18T06:19:38.629Z,4.10
2022-09-18T06:22:09.270Z,3.80
2022-09-18T06:24:39.638Z,4.10
2022-09-18T06:27:12.471Z,4.60
2022-09-18T06:29:43.716Z,3.70
2022-09-18T06:32:20.409Z,4.00
2022-09-18T06:34:51.426Z,3.50
2022-09-18T06:37:22.156Z,3.70
2022-09-18T06:40:12.564Z,3.80
2022-09-18T06:43:04.185Z,3.20
2022-09-18T06:45:56.409Z,3.70
2022-09-18T06:48:29.458Z,3.30
2022-09-18T06:51:00.797Z,3.00
2022-09-18T06:53:34.203Z,3.40
2022-09-18T06:56:06.813Z,3.10
2022-09-18T06:58:38.984Z,3.10
2022-09-18T07:01:09.965Z,3.30
2022-09-18T07:03:43.830Z,3.10
2022-09-18T07:06:25.544Z,3.20
2022-09-18T07:08:56.478Z,3.20
2022-09-18T07:11:39.790Z,3.40
2022-09-18T07:14:10.230Z,3.00
2022-09-18T07:16:41.245Z,2.90
2022-09-18T07:19:12.297Z,3.20
2022-09-18T07:21:43.129Z,2.60
2022-09-18T07:24:13.764Z,3.30
2022-09-18T07:26:44.624Z,2.70
2022-09-18T07:29:15.072Z,2.60
2022-09-18T07:31:45.878Z,2.80
2022-09-18T07:34:16.996Z,3.00
2022-09-18T07:36:50.258Z,2.20
2022-09-18T07:39:20.951Z,2.70
2022-09-18T07:42:10.435Z,2.10
2022-09-18T07:44:44.200Z,2.30
2022-09-18T07:47:14.931Z,2.50
2022-09-18T07:49:45.568Z,2.20
2022-09-18T07:52:16.712Z,2.40
2022-09-18T07:57:33.687Z,2.50
2022-09-18T08:00:16.617Z,2.70
2022-09-18T08:02:47.059Z,2.30
2022-09-18T08:05:29.903Z,2.70
2022-09-18T08:08:06.645Z,2.40
2022-09-18T08:10:52.867Z,2.50
2022-09-18T08:13:39.879Z,2.50
2022-09-18T08:16:26.422Z,1.90
2022-09-18T08:19:15.832Z,2.40
2022-09-18T08:21:51.074Z,2.20
2022-09-18T08:24:22.836Z,1.90
2022-09-18T08:26:57.645Z,1.70
2022-09-18T08:29:29.724Z,2.40
2022-09-18T08:32:09.543Z,2.00
2022-09-18T08:34:42.687Z,1.20
2022-09-18T08:37:17.100Z,2.20
2022-09-18T08:40:09.269Z,1.90
2022-09-18T08:42:50.110Z,2.00
2022-09-18T08:45:30.490Z,2.00
2022-09-18T08:48:06.653Z,1.70
2022-09-18T08:50:45.095Z,1.50
2022-09-18T08:53:19.978Z,1.80
2022-09-18T08:56:24.048Z,1.70
2022-09-18T08:59:18.989Z,1.60
2022-09-18T09:01:57.614Z,2.40
2022-09-18T09:04:30.357Z,1.40
2022-09-18T09:07:05.361Z,1.30
2022-09-18T09:09:45.898Z,1.60
2022-09-18T09:12:23.499Z,1.40
2022-09-18T09:15:05.166Z,1.30
2022-09-18T09:17:51.191Z,1.40
2022-09-18T09:20:26.198Z,1.30
2022-09-18T09:23:03.632Z,1.30
2022-09-18T09:25:39.591Z,1.40
2022-09-18T09:28:33.102Z,1.70
2022-09-18T09:31:35.852Z,1.30
2022-09-18T09:34:30.483Z,1.50
2022-09-18T09:37:12.789Z,1.20
2022-09-18T09:39:46.077Z,1.40
2022-09-18T09:42:18.864Z,1.50
2022-09-18T09:44:53.124Z,1.40
2022-09-18T09:47:28.067Z,1.50
2022-09-18T09:50:04.628Z,1.40
2022-09-18T09:52:38.073Z,1.30
2022-09-18T09:55:20.238Z,1.00
2022-09-18T09:57:56.638Z,1.60
2022-09-18T10:00:29.079Z,1.30
2022-09-18T10:03:16.226Z,1.00
2022-09-18T10:05:53.940Z,1.30
2022-09-18T10:08:28.755Z,1.10
2022-09-18T10:11:01.848Z,1.10
2022-09-18T10:13:35.461Z,1.00
2022-09-18T10:16:09.335Z,1.00
2022-09-18T10:18:41.099Z,1.20
2022-09-18T10:21:14.100Z,1.20
2022-09-18T10:23:45.414Z,1.10
2022-09-18T10:26:18.835Z,1.20
2022-09-18T10:28:49.254Z,1.10
2022-09-18T10:31:21.337Z,1.10
2022-09-18T10:33:54.500Z,1.30
2022-09-18T10:36:30.776Z,0.80
2022-09-18T10:39:17.485Z,1.40
2022-09-18T10:41:49.743Z,1.50
2022-09-18T10:44:25.943Z,1.20
2022-09-18T10:47:05.253Z,1.20
2022-09-18T10:49:41.104Z,1.30
2022-09-18T10:52:22.312Z,1.30
2022-09-18T10:55:03.369Z,1.30
2022-09-18T10:57:36.129Z,1.10
2022-09-18T11:00:33.957Z,1.20
2022-09-18T11:03:09.051Z,1.20
2022-09-18T11:05:48.755Z,1.30
2022-09-18T11:08:21.883Z,1.20
2022-09-18T11:11:01.715Z,1.20
2022-09-18T11:13:34.405Z,1.10
2022-09-18T11:16:06.723Z,1.20
2022-09-18T11:18:38.116Z,1.30
2022-09-18T11:21:09.174Z,1.30
2022-09-18T11:23:43.176Z,1.60
2022-09-18T11:28:43.510Z,1.30
2022-09-18T11:31:19.716Z,1.40
2022-09-18T11:33:56.435Z,1.60
2022-09-18T11:36:33.888Z,1.30
2022-09-18T11:39:15.217Z,1.40
2022-09-18T11:41:49.751Z,2.00
2022-09-18T11:44:23.958Z,1.50
2022-09-18T11:47:04.695Z,1.30
2022-09-18T11:49:37.845Z,1.80
2022-09-18T11:52:16.579Z,1.60
2022-09-18T11:54:55.688Z,1.60
2022-09-18T11:59:58.129Z,1.30
2022-09-18T12:05:04.188Z,1.20
2022-09-18T12:07:38.743Z,1.30
2022-09-18T12:10:16.678Z,1.20
2022-09-18T12:12:49.847Z,1.20
2022-09-18T12:15:22.939Z,1.20
2022-09-18T12:17:55.600Z,1.30
2022-09-18T12:20:28.501Z,1.10
2022-09-18T12:23:00.826Z,1.20
2022-09-18T12:25:40.696Z,1.50
2022-09-18T12:28:42.382Z,1.40
2022-09-18T12:31:15.591Z,1.30
2022-09-18T12:33:51.586Z,1.10
2022-09-18T12:36:36.835Z,1.40
2022-09-18T12:39:15.111Z,1.70
2022-09-18T12:41:52.591Z,1.50
2022-09-18T12:44:33.754Z,1.50
2022-09-18T12:47:26.247Z,1.90
2022-09-18T12:50:07.944Z,1.60
2022-09-18T12:53:06.299Z,1.90
2022-09-18T12:55:47.030Z,1.40
2022-09-18T12:58:32.096Z,1.50
2022-09-18T13:01:04.714Z,1.50
2022-09-18T13:03:37.756Z,1.50
2022-09-18T13:08:40.754Z,1.50
2022-09-18T13:11:15.544Z,1.50
2022-09-18T13:13:49.283Z,1.20
2022-09-18T13:16:23.528Z,1.40
2022-09-18T13:18:57.277Z,1.40
2022-09-18T13:21:30.175Z,1.60
2022-09-18T13:24:06.361Z,1.50
2022-09-18T13:26:38.738Z,1.20
2022-09-18T13:29:22.881Z,1.10
2022-09-18T13:31:55.262Z,0.90
2022-09-18T13:34:26.311Z,1.00
2022-09-18T13:37:05.614Z,1.30
2022-09-18T13:39:55.401Z,1.00
2022-09-18T13:42:31.454Z,0.90
2022-09-18T13:45:06.415Z,0.80
2022-09-18T13:47:57.561Z,1.20
2022-09-18T13:50:29.630Z,0.80
2022-09-18T13:53:01.030Z,1.40
2022-09-18T13:55:38.711Z,1.00
2022-09-18T13:58:27.083Z,1.00
2022-09-18T14:00:58.511Z,1.00
2022-09-18T14:03:37.212Z,1.10
2022-09-18T14:06:25.962Z,1.60
2022-09-18T14:09:02.016Z,1.00
2022-09-18T14:11:32.748Z,1.20
2022-09-18T14:14:11.772Z,1.20
2022-09-18T14:16:44.762Z,2.30
2022-09-18T14:19:37.597Z,1.60
2022-09-18T14:22:24.219Z,1.80
2022-09-18T14:25:07.306Z,1.50
2022-09-18T14:27:43.197Z,1.40
2022-09-18T14:30:21.530Z,1.20
2022-09-18T14:32:58.832Z,1.90
2022-09-18T14:35:33.190Z,1.60
2022-09-18T14:38:16.718Z,1.90
2022-09-18T14:40:53.108Z,1.60
2022-09-18T14:43:25.145Z,1.60
2022-09-18T14:45:56.024Z,1.30
2022-09-18T14:48:31.456Z,1.30
2022-09-18T14:51:03.194Z,1.50
2022-09-18T14:53:41.863Z,1.90
2022-09-18T14:56:13.645Z,1.90
2022-09-18T14:58:46.882Z,1.50
2022-09-18T15:01:18.881Z,1.60
2022-09-18T15:03:50.672Z,1.40
2022-09-18T15:06:22.354Z,1.70
2022-09-18T15:08:54.739Z,1.60
2022-09-18T15:11:32.115Z,1.80
2022-09-18T15:14:22.102Z,1.70
2022-09-18T15:16:58.698Z,1.60
2022-09-18T15:19:31.022Z,1.40
2022-09-18T15:22:01.790Z,1.80
2022-09-18T15:27:46.607Z,1.70
2022-09-18T15:30:20.020Z,2.20
2022-09-18T15:32:57.680Z,2.40
2022-09-18T15:35:30.859Z,2.60
2022-09-18T15:38:06.930Z,2.30
2022-09-18T15:40:44.621Z,2.40
2022-09-18T15:46:26.377Z,3.30
2022-09-18T15:49:00.475Z,3.20
2022-09-18T15:51:32.886Z,3.40
2022-09-18T15:54:05.431Z,3.50
2022-09-18T15:56:55.082Z,3.40
2022-09-18T15:59:31.078Z,3.70
2022-09-18T16:02:07.735Z,3.10
2022-09-18T16:04:38.326Z,3.30
2022-09-18T16:07:20.843Z,3.30
2022-09-18T16:09:52.082Z,3.80
2022-09-18T16:12:42.289Z,3.50
2022-09-18T16:15:17.821Z,3.20
2022-09-18T16:17:55.717Z,4.30
2022-09-18T16:20:31.812Z,3.80
2022-09-18T16:23:13.876Z,3.60
2022-09-18T16:25:45.039Z,3.40
2022-09-18T16:28:27.633Z,4.30
2022-09-18T16:30:58.545Z,4.20
2022-09-18T16:33:30.150Z,4.10
2022-09-18T16:36:03.571Z,4.70
2022-09-18T16:38:34.047Z,3.90
2022-09-18T16:41:04.701Z,4.10
2022-09-18T16:43:36.060Z,4.60
2022-09-18T16:46:06.777Z,5.30
2022-09-18T16:48:37.906Z,5.40
2022-09-18T16:51:08.441Z,3.80
2022-09-18T16:53:39.169Z,4.20
2022-09-18T16:56:10.913Z,3.80
2022-09-18T16:58:42.232Z,4.60
2022-09-18T17:01:13.013Z,4.90
2022-09-18T17:03:43.624Z,4.40
2022-09-18T17:06:18.697Z,4.40
2022-09-18T17:08:50.195Z,4.50
2022-09-18T17:11:21.522Z,5.40
2022-09-18T17:13:52.034Z,4.90
2022-09-18T17:16:41.483Z,4.60
2022-09-18T17:19:16.603Z,4.50
2022-09-18T17:21:47.846Z,5.40
2022-09-18T17:24:24.919Z,4.40
2022-09-18T17:27:00.953Z,4.40
2022-09-18T17:29:32.807Z,5.40
2022-09-18T17:32:04.388Z,5.00
2022-09-18T17:34:40.370Z,5.10
2022-09-18T17:37:11.183Z,5.60
2022-09-18T17:39:42.433Z,4.40
2022-09-18T17:42:13.451Z,4.60
2022-09-18T17:44:44.520Z,4.10
2022-09-18T17:47:15.909Z,5.10
2022-09-18T17:49:47.324Z,5.30
2022-09-18T17:52:18.966Z,4.30
2022-09-18T17:54:49.802Z,4.20
2022-09-18T17:57:20.741Z,4.30
2022-09-18T17:59:51.395Z,4.20
2022-09-18T18:02:22.235Z,5.30
2022-09-18T18:04:53.351Z,5.10
2022-09-18T18:07:24.391Z,4.40
2022-09-18T18:09:55.013Z,4.80
2022-09-18T18:12:29.866Z,4.30
2022-09-18T18:15:02.146Z,4.50
2022-09-18T18:17:36.533Z,4.20
2022-09-18T18:20:12.222Z,5.10
2022-09-18T18:22:43.017Z,4.80
2022-09-18T18:25:13.862Z,4.50
2022-09-18T18:27:45.451Z,4.30
2022-09-18T18:30:18.916Z,4.10
2022-09-18T18:32:50.255Z,4.20
2022-09-18T18:35:20.941Z,4.40
2022-09-18T18:37:51.747Z,5.20
2022-09-18T18:40:24.211Z,5.00
2022-09-18T18:43:00.247Z,4.60
2022-09-18T18:45:39.171Z,6.00
2022-09-18T18:48:11.735Z,4.40
2022-09-18T18:50:43.040Z,5.70
2022-09-18T18:53:18.027Z,6.30
2022-09-18T18:55:49.696Z,5.90
2022-09-18T18:58:20.413Z,6.20
2022-09-18T19:00:52.128Z,9.10
2022-09-18T19:03:27.944Z,7.10
2022-09-18T19:05:59.370Z,6.70
2022-09-18T19:08:36.307Z,6.50
2022-09-18T19:11:12.212Z,7.80
2022-09-18T19:13:43.263Z,6.60
2022-09-18T19:16:22.618Z,6.10
2022-09-18T19:19:06.522Z,6.10
2022-09-18T19:21:37.793Z,6.50
2022-09-18T19:24:09.626Z,4.80
2022-09-18T19:26:41.127Z,5.40
2022-09-18T19:29:16.974Z,5.30
2022-09-18T19:31:48.706Z,4.80
2022-09-18T19:34:19.843Z,4.80
2022-09-18T19:36:52.015Z,5.00
2022-09-18T19:39:24.923Z,5.00
2022-09-18T19:44:38.313Z,4.30
2022-09-18T19:47:16.043Z,5.30
2022-09-18T19:49:49.264Z,5.90
2022-09-18T19:52:24.223Z,4.50
2022-09-18T19:55:02.101Z,4.10
2022-09-18T19:57:36.463Z,4.30
2022-09-18T20:00:08.070Z,5.20
2022-09-18T20:02:42.954Z,5.10
2022-09-18T20:05:18.211Z,5.00
2022-09-18T20:07:50.484Z,4.80
2022-09-18T20:10:20.743Z,4.40
2022-09-18T20:12:52.946Z,4.40
2022-09-18T20:15:23.164Z,4.40
2022-09-18T20:17:56.256Z,5.80
2022-09-18T20:20:27.206Z,5.90
2022-09-18T20:22:58.061Z,5.30
2022-09-18T20:25:28.556Z,4.90
2022-09-18T20:28:08.108Z,4.80
2022-09-18T20:30:39.452Z,4.80
2022-09-18T20:33:14.371Z,5.30
2022-09-18T20:35:53.311Z,5.50
2022-09-18T20:38:24.870Z,5.30
2022-09-18T20:41:06.610Z,5.60
2022-09-18T20:43:38.892Z,5.00
2022-09-18T20:46:12.765Z,5.20
2022-09-18T20:48:46.132Z,4.40
2022-09-18T20:51:22.770Z,5.40
2022-09-18T20:53:56.314Z,5.00
2022-09-18T20:56:33.283Z,4.80
2022-09-18T20:59:09.947Z,4.90
2022-09-18T21:01:46.009Z,5.70
2022-09-18T21:04:26.797Z,4.90
2022-09-18T21:06:57.505Z,5.20
2022-09-18T21:09:33.558Z,4.60
2022-09-18T21:12:04.532Z,6.00
2022-09-18T21:14:34.822Z,7.10
2022-09-18T21:17:09.103Z,5.20
2022-09-18T21:19:40.176Z,5.70
2022-09-18T21:22:11.176Z,5.30
2022-09-18T21:24:41.539Z,6.00
2022-09-18T21:27:13.036Z,5.10
2022-09-18T21:29:43.322Z,5.40
2022-09-18T21:32:14.977Z,5.80
2022-09-18T21:34:46.128Z,5.90
2022-09-18T21:37:17.428Z,5.80
2022-09-18T21:39:47.887Z,5.10
2022-09-18T21:42:19.072Z,4.90
2022-09-18T21:44:49.454Z,5.60
2022-09-18T21:47:21.518Z,5.20
2022-09-18T21:49:52.765Z,5.40
2022-09-18T21:52:23.850Z,5.50
2022-09-18T21:54:54.330Z,5.10
2022-09-18T21:57:25.226Z,5.40
2022-09-18T21:59:56.308Z,5.70
2022-09-18T22:02:27.654Z,5.40
2022-09-18T22:04:58.295Z,4.80
2022-09-18T22:07:29.163Z,4.50
2022-09-18T22:09:59.861Z,4.90
2022-09-18T22:12:32.918Z,5.60
2022-09-18T22:15:03.372Z,4.70
2022-09-18T22:17:34.357Z,4.80
2022-09-18T22:20:05.244Z,4.50
2022-09-18T22:22:36.192Z,5.10
2022-09-18T22:25:07.348Z,6.10
2022-09-18T22:27:38.370Z,5.50
2022-09-18T22:30:09.797Z,5.20
2022-09-18T22:32:40.857Z,5.00
2022-09-18T22:35:12.207Z,5.40
2022-09-18T22:37:42.851Z,5.50
2022-09-18T22:40:13.304Z,5.90
2022-09-18T22:42:44.359Z,5.70
2022-09-18T22:45:14.730Z,4.80
2022-09-18T22:47:45.776Z,5.00
2022-09-18T22:50:16.094Z,5.20
2022-09-18T22:52:46.706Z,4.80
2022-09-18T22:55:17.105Z,4.70
2022-09-18T22:57:47.677Z,5.50
2022-09-18T23:00:18.564Z,5.90
2022-09-18T23:02:50.337Z,5.40
2022-09-18T23:05:20.598Z,5.60
2022-09-18T23:07:51.429Z,5.30
2022-09-18T23:10:22.381Z,5.30
2022-09-18T23:12:52.919Z,5.00
2022-09-18T23:15:23.349Z,5.40
2022-09-18T23:17:54.837Z,4.80
2022-09-18T23:20:25.610Z,4.30
2022-09-18T23:22:56.444Z,6.20
2022-09-18T23:25:26.776Z,5.20
2022-09-18T23:27:57.448Z,4.80
2022-09-18T23:30:28.028Z,5.00
2022-09-18T23:32:58.562Z,4.70
2022-09-18T23:35:29.292Z,4.10
2022-09-18T23:38:00.260Z,4.20
2022-09-18T23:40:32.117Z,4.40
2022-09-18T23:43:02.884Z,4.10
2022-09-18T23:45:34.991Z,4.20
2022-09-18T23:48:05.774Z,4.00
2022-09-18T23:50:36.558Z,4.60
2022-09-18T23:53:07.131Z,4.70
2022-09-18T23:55:37.365Z,5.00
2022-09-18T23:58:08.042Z,5.00
